createdAt,value
2018-04-24T00:00:01.444Z,15.66
2018-04-24T00:00:41.743Z,15.62
2018-04-24T00:01:22.170Z,15.52
2018-04-24T00:02:02.538Z,15.41
2018-04-24T00:02:42.975Z,15.43
2018-04-24T00:03:23.307Z,15.44
2018-04-24T00:04:03.724Z,15.31
2018-04-24T00:04:45.550Z,15.41
2018-04-24T00:05:25.931Z,15.3
2018-04-24T00:06:06.382Z,15.31
2018-04-24T00:06:46.850Z,15.35
2018-04-24T00:07:27.240Z,15.31
2018-04-24T00:08:08.773Z,15.3
2018-04-24T00:08:49.183Z,15.34
2018-04-24T00:09:29.625Z,15.37
2018-04-24T00:10:10.359Z,15.23
2018-04-24T00:10:50.709Z,15.23
2018-04-24T00:11:31.174Z,15.18
2018-04-24T00:12:11.495Z,15.19
2018-04-24T00:12:51.893Z,15.31
2018-04-24T00:13:32.392Z,15.38
2018-04-24T00:14:12.756Z,15.35
2018-04-24T00:14:53.111Z,15.4
2018-04-24T00:15:33.588Z,15.35
2018-04-24T00:16:13.997Z,15.2
2018-04-24T00:18:16.004Z,15.09
2018-04-24T00:18:54.572Z,15.01
2018-04-24T00:19:35.134Z,15.03
2018-04-24T00:20:15.467Z,15.09
2018-04-24T00:20:55.956Z,15.16
2018-04-24T00:21:36.505Z,15.18
2018-04-24T00:22:16.853Z,15.16
2018-04-24T00:22:57.256Z,15.18
2018-04-24T00:23:37.735Z,15.15
2018-04-24T00:24:18.141Z,15.18
2018-04-24T00:24:58.525Z,15.15
2018-04-24T00:25:38.918Z,15.11
2018-04-24T00:26:19.334Z,15.23
2018-04-24T00:27:01.108Z,15.19
2018-04-24T00:27:41.682Z,15.13
2018-04-24T00:28:21.908Z,15.15
2018-04-24T00:29:02.342Z,15.12
2018-04-24T00:29:42.745Z,15.09
2018-04-24T00:30:23.216Z,15.13
2018-04-24T00:31:03.557Z,15.04
2018-04-24T00:31:43.990Z,15.16
2018-04-24T00:32:24.734Z,15.18
2018-04-24T00:33:05.816Z,15.28
2018-04-24T00:33:46.432Z,15.15
2018-04-24T00:34:26.724Z,15.22
2018-04-24T00:35:07.076Z,15.15
2018-04-24T00:35:47.461Z,15.16
2018-04-24T00:36:27.896Z,15.16
2018-04-24T00:37:08.359Z,14.91
2018-04-24T00:37:48.687Z,15.04
2018-04-24T00:38:29.865Z,15.07
2018-04-24T00:39:10.279Z,15
2018-04-24T00:39:50.576Z,15
2018-04-24T00:40:30.945Z,15.12
2018-04-24T00:41:11.417Z,15.03
2018-04-24T00:41:51.962Z,15.04
2018-04-24T00:42:32.604Z,14.94
2018-04-24T00:43:13.457Z,15.01
2018-04-24T00:43:53.796Z,14.94
2018-04-24T00:44:34.208Z,14.93
2018-04-24T00:45:14.821Z,14.83
2018-04-24T00:45:55.338Z,14.87
2018-04-24T00:46:35.712Z,15
2018-04-24T00:47:16.276Z,15.03
2018-04-24T00:47:56.788Z,15.01
2018-04-24T00:48:37.161Z,15
2018-04-24T00:49:17.581Z,14.91
2018-04-24T00:49:58.069Z,14.87
2018-04-24T00:50:39.076Z,14.74
2018-04-24T00:51:19.478Z,14.83
2018-04-24T00:51:59.972Z,14.69
2018-04-24T00:52:40.363Z,14.72
2018-04-24T00:53:20.854Z,14.69
2018-04-24T00:54:02.123Z,14.74
2018-04-24T00:54:42.527Z,14.75
2018-04-24T00:55:23.756Z,14.71
2018-04-24T00:56:03.748Z,14.78
2018-04-24T00:56:44.108Z,14.63
2018-04-24T00:57:24.547Z,14.72
2018-04-24T00:58:04.932Z,14.66
2018-04-24T00:58:45.389Z,14.66
2018-04-24T00:59:25.811Z,14.57
2018-04-24T01:00:06.284Z,14.59
2018-04-24T01:00:46.678Z,14.48
2018-04-24T01:01:27.294Z,14.46
2018-04-24T01:02:07.404Z,14.45
2018-04-24T01:02:48.086Z,14.44
2018-04-24T01:03:28.402Z,14.44
2018-04-24T01:04:08.802Z,14.46
2018-04-24T01:04:49.177Z,14.39
2018-04-24T01:05:29.581Z,14.38
2018-04-24T01:06:10.263Z,14.39
2018-04-24T01:06:50.550Z,14.34
2018-04-24T01:07:30.986Z,14.26
2018-04-24T01:08:11.394Z,14.39
2018-04-24T01:08:51.812Z,14.31
2018-04-24T01:09:32.233Z,14.24
2018-04-24T01:10:12.649Z,14.13
2018-04-24T01:10:53.059Z,14.12
2018-04-24T01:11:33.475Z,14.08
2018-04-24T01:12:13.879Z,14.16
2018-04-24T01:12:54.254Z,14.12
2018-04-24T01:13:34.668Z,14.01
2018-04-24T01:14:15.118Z,14.09
2018-04-24T01:14:55.506Z,14.13
2018-04-24T01:15:35.951Z,14.09
2018-04-24T01:16:16.396Z,14.09
2018-04-24T01:16:56.872Z,14.02
2018-04-24T01:17:37.247Z,13.98
2018-04-24T01:18:17.715Z,13.96
2018-04-24T01:18:58.127Z,13.86
2018-04-24T01:19:38.497Z,13.87
2018-04-24T01:20:18.949Z,13.86
2018-04-24T01:20:59.485Z,13.76
2018-04-24T01:21:39.656Z,13.73
2018-04-24T01:22:20.072Z,13.69
2018-04-24T01:23:00.429Z,13.66
2018-04-24T01:23:40.911Z,13.71
2018-04-24T01:24:21.252Z,13.72
2018-04-24T01:25:01.698Z,13.69
2018-04-24T01:25:42.181Z,13.73
2018-04-24T01:26:23.368Z,13.69
2018-04-24T01:27:05.844Z,13.54
2018-04-24T01:27:46.340Z,13.73
2018-04-24T01:28:26.837Z,13.63
2018-04-24T01:29:07.503Z,13.71
2018-04-24T01:29:49.399Z,13.73
2018-04-24T01:30:29.360Z,13.86
2018-04-24T01:31:11.298Z,13.81
2018-04-24T01:31:51.643Z,13.84
2018-04-24T01:32:32.047Z,13.86
2018-04-24T01:33:12.687Z,13.88
2018-04-24T01:33:52.938Z,13.91
2018-04-24T01:34:33.331Z,13.99
2018-04-24T01:36:27.732Z,13.98
2018-04-24T01:37:08.089Z,13.88
2018-04-24T01:37:48.522Z,13.87
2018-04-24T01:38:28.953Z,13.91
2018-04-24T01:39:09.572Z,13.94
2018-04-24T01:39:49.979Z,13.91
2018-04-24T01:40:30.408Z,13.98
2018-04-24T01:41:10.818Z,13.91
2018-04-24T01:41:51.212Z,13.87
2018-04-24T01:42:31.669Z,13.9
2018-04-24T01:43:12.078Z,13.88
2018-04-24T01:43:52.484Z,13.87
2018-04-24T01:44:32.895Z,13.88
2018-04-24T01:45:13.335Z,13.86
2018-04-24T01:45:53.721Z,13.93
2018-04-24T01:46:34.171Z,13.83
2018-04-24T01:47:15.403Z,13.99
2018-04-24T01:47:56.105Z,13.88
2018-04-24T01:48:36.346Z,13.83
2018-04-24T01:49:16.719Z,13.9
2018-04-24T01:49:57.147Z,13.93
2018-04-24T01:50:41.101Z,13.88
2018-04-24T01:57:51.741Z,13.83
2018-04-24T01:58:32.052Z,13.81
2018-04-24T01:59:12.376Z,13.81
2018-04-24T01:59:52.857Z,13.73
2018-04-24T02:00:33.238Z,13.59
2018-04-24T02:01:13.643Z,13.66
2018-04-24T02:01:54.088Z,13.69
2018-04-24T02:02:34.474Z,13.63
2018-04-24T02:03:15.689Z,13.69
2018-04-24T02:03:56.143Z,13.65
2018-04-24T02:04:36.460Z,13.69
2018-04-24T02:05:16.975Z,13.75
2018-04-24T02:05:57.294Z,13.65
2018-04-24T02:06:37.757Z,13.72
2018-04-24T02:07:18.125Z,13.73
2018-04-24T02:07:58.860Z,13.57
2018-04-24T02:08:39.852Z,13.57
2018-04-24T02:09:20.305Z,13.59
2018-04-24T02:10:00.625Z,13.61
2018-04-24T02:10:41.017Z,13.57
2018-04-24T02:11:21.635Z,13.55
2018-04-24T02:12:01.893Z,13.57
2018-04-24T02:12:42.319Z,13.65
2018-04-24T02:13:22.683Z,13.54
2018-04-24T02:14:03.159Z,13.57
2018-04-24T02:14:43.585Z,13.62
2018-04-24T02:15:23.937Z,13.57
2018-04-24T02:16:04.523Z,13.59
2018-04-24T02:16:44.765Z,13.55
2018-04-24T02:17:25.191Z,13.5
2018-04-24T02:19:27.077Z,13.57
2018-04-24T02:20:18.732Z,13.48
2018-04-24T02:23:30.878Z,13.48
2018-04-24T02:26:14.067Z,13.25
2018-04-24T02:26:54.369Z,13.29
2018-04-24T02:27:34.647Z,13.25
2018-04-24T02:28:15.097Z,13.21
2018-04-24T02:28:55.435Z,13.35
2018-04-24T02:29:36.365Z,13.29
2018-04-24T02:30:16.747Z,13.46
2018-04-24T02:30:57.161Z,13.32
2018-04-24T02:31:37.548Z,13.47
2018-04-24T02:32:18.564Z,13.41
2018-04-24T02:32:58.985Z,13.5
2018-04-24T02:33:39.804Z,13.47
2018-04-24T02:34:20.327Z,13.57
2018-04-24T02:35:00.628Z,13.54
2018-04-24T02:35:41.218Z,13.61
2018-04-24T02:36:21.461Z,13.55
2018-04-24T02:37:01.976Z,13.57
2018-04-24T02:37:42.440Z,13.57
2018-04-24T02:38:22.902Z,13.54
2018-04-24T02:39:03.285Z,13.5
2018-04-24T02:39:43.853Z,13.59
2018-04-24T02:40:24.309Z,13.59
2018-04-24T02:41:04.640Z,13.54
2018-04-24T02:41:46.461Z,13.55
2018-04-24T02:42:26.932Z,13.62
2018-04-24T02:43:07.324Z,13.53
2018-04-24T02:43:47.851Z,13.46
2018-04-24T02:44:28.165Z,13.57
2018-04-24T02:45:08.642Z,13.57
2018-04-24T02:45:49.159Z,13.54
2018-04-24T02:46:29.456Z,13.61
2018-04-24T02:47:09.865Z,13.61
2018-04-24T02:47:50.335Z,13.59
2018-04-24T02:48:30.699Z,13.65
2018-04-24T02:49:11.128Z,13.57
2018-04-24T02:49:51.537Z,13.62
2018-04-24T02:50:32.004Z,13.54
2018-04-24T02:51:12.345Z,13.63
2018-04-24T02:51:52.786Z,13.59
2018-04-24T02:52:33.160Z,13.61
2018-04-24T02:53:13.614Z,13.54
2018-04-24T02:53:54.007Z,13.5
2018-04-24T02:54:34.501Z,13.47
2018-04-24T02:55:14.845Z,13.54
2018-04-24T02:55:55.238Z,13.59
2018-04-24T02:56:35.736Z,13.55
2018-04-24T02:57:16.088Z,13.61
2018-04-24T02:57:56.461Z,13.5
2018-04-24T02:58:36.910Z,13.47
2018-04-24T02:59:17.255Z,13.46
2018-04-24T02:59:57.660Z,13.39
2018-04-24T03:00:38.028Z,13.31
2018-04-24T03:01:19.058Z,13.32
2018-04-24T03:01:59.407Z,13.46
2018-04-24T03:02:39.805Z,13.41
2018-04-24T03:04:53.806Z,13.5
2018-04-24T03:05:34.551Z,13.46
2018-04-24T03:06:14.908Z,13.48
2018-04-24T03:06:55.673Z,13.47
2018-04-24T03:07:36.122Z,13.46
2018-04-24T03:08:16.490Z,13.39
2018-04-24T03:08:56.977Z,13.39
2018-04-24T03:09:38.036Z,13.31
2018-04-24T03:10:18.259Z,13.31
2018-04-24T03:10:58.701Z,13.41
2018-04-24T03:11:39.064Z,13.38
2018-04-24T03:12:19.599Z,13.29
2018-04-24T03:13:00.017Z,13.29
2018-04-24T03:13:40.449Z,13.25
2018-04-24T03:14:21.425Z,13.28
2018-04-24T03:15:01.601Z,13.38
2018-04-24T03:15:41.833Z,13.32
2018-04-24T03:16:22.307Z,13.43
2018-04-24T03:17:02.772Z,13.41
2018-04-24T03:17:43.163Z,13.39
2018-04-24T03:18:23.627Z,13.35
2018-04-24T03:19:04.083Z,13.31
2018-04-24T03:19:44.520Z,13.29
2018-04-24T03:20:25.205Z,13.41
2018-04-24T03:21:06.116Z,13.27
2018-04-24T03:21:46.317Z,13.28
2018-04-24T03:22:26.751Z,13.25
2018-04-24T03:23:07.186Z,13.21
2018-04-24T03:23:47.863Z,13.21
2018-04-24T03:24:28.289Z,13.22
2018-04-24T03:25:08.743Z,13.27
2018-04-24T03:25:49.117Z,13.25
2018-04-24T03:26:29.539Z,13.19
2018-04-24T03:27:10.748Z,13.19
2018-04-24T03:27:51.100Z,13.17
2018-04-24T03:28:31.663Z,13.25
2018-04-24T03:29:12.029Z,13.27
2018-04-24T03:29:52.801Z,13.25
2018-04-24T03:30:33.212Z,13.25
2018-04-24T03:31:13.733Z,13.25
2018-04-24T03:31:54.101Z,13.22
2018-04-24T03:32:34.829Z,13.19
2018-04-24T03:33:15.012Z,13.24
2018-04-24T03:33:55.332Z,13.24
2018-04-24T03:34:35.808Z,13.24
2018-04-24T03:35:16.259Z,13.25
2018-04-24T03:35:56.698Z,13.25
2018-04-24T03:36:37.066Z,13.29
2018-04-24T03:37:17.689Z,13.24
2018-04-24T03:37:58.405Z,13.14
2018-04-24T03:38:39.359Z,13.13
2018-04-24T03:39:19.810Z,12.94
2018-04-24T03:40:00.363Z,13.04
2018-04-24T03:40:40.999Z,13.07
2018-04-24T03:41:21.441Z,13.06
2018-04-24T03:42:02.039Z,13.03
2018-04-24T03:42:42.368Z,13.07
2018-04-24T03:43:22.853Z,13.1
2018-04-24T03:44:03.262Z,13.1
2018-04-24T03:44:43.653Z,13.14
2018-04-24T03:45:24.132Z,13.14
2018-04-24T03:46:04.532Z,13.19
2018-04-24T03:46:45.029Z,13.25
2018-04-24T03:47:25.360Z,13.24
2018-04-24T03:48:05.796Z,13.22
2018-04-24T03:48:46.206Z,13.22
2018-04-24T03:49:26.605Z,13.25
2018-04-24T03:50:07.520Z,13.19
2018-04-24T03:50:47.505Z,13.17
2018-04-24T03:51:28.086Z,13.29
2018-04-24T03:52:09.423Z,13.27
2018-04-24T03:52:49.168Z,13.25
2018-04-24T03:53:30.064Z,13.25
2018-04-24T03:54:10.630Z,13.19
2018-04-24T03:54:51.070Z,13.21
2018-04-24T03:55:31.518Z,13.41
2018-04-24T03:56:11.986Z,13.28
2018-04-24T03:56:52.443Z,13.32
2018-04-24T03:57:32.858Z,13.38
2018-04-24T03:58:13.324Z,13.38
2018-04-24T03:58:53.811Z,13.41
2018-04-24T03:59:34.166Z,13.41
2018-04-24T04:00:14.599Z,13.43
2018-04-24T04:00:55.717Z,13.47
2018-04-24T04:01:36.149Z,13.5
2018-04-24T04:41:37.055Z,12.89
2018-04-24T04:42:19.447Z,12.8
2018-04-24T04:43:05.643Z,12.87
2018-04-24T04:43:46.129Z,12.81
2018-04-24T04:44:26.543Z,12.91
2018-04-24T04:45:06.947Z,12.87
2018-04-24T04:45:47.374Z,12.96
2018-04-24T04:46:28.036Z,12.94
2018-04-24T04:47:08.383Z,12.95
2018-04-24T04:47:48.879Z,12.98
2018-04-24T04:48:29.228Z,12.99
2018-04-24T04:49:09.614Z,12.94
2018-04-24T04:49:50.105Z,13.13
2018-04-24T04:50:30.629Z,13.19
2018-04-24T04:51:11.119Z,13.21
2018-04-24T04:51:53.780Z,13.27
2018-04-24T04:52:33.954Z,13.25
2018-04-24T04:53:14.727Z,13.25
2018-04-24T04:53:55.140Z,13.28
2018-04-24T04:54:35.436Z,13.31
2018-04-24T04:55:15.985Z,13.27
2018-04-24T04:55:56.371Z,13.24
2018-04-24T04:56:36.672Z,13.31
2018-04-24T04:57:17.125Z,13.24
2018-04-24T04:57:57.766Z,13.35
2018-04-24T04:58:38.171Z,13.36
2018-04-24T04:59:18.705Z,13.38
2018-04-24T04:59:59.387Z,13.29
2018-04-24T05:00:39.510Z,13.32
2018-04-24T05:01:19.890Z,13.39
2018-04-24T05:02:00.412Z,13.36
2018-04-24T05:02:40.954Z,13.24
2018-04-24T05:03:21.405Z,13.29
2018-04-24T05:04:02.666Z,13.22
2018-04-24T05:04:42.738Z,13.22
2018-04-24T05:05:23.209Z,13.25
2018-04-24T05:06:04.751Z,13.24
2018-04-24T05:06:45.084Z,13.29
2018-04-24T05:07:25.363Z,13.36
2018-04-24T05:08:05.929Z,13.41
2018-04-24T05:08:46.271Z,13.43
2018-04-24T05:09:26.711Z,13.46
2018-04-24T05:10:07.451Z,13.5
2018-04-24T05:10:48.522Z,13.61
2018-04-24T05:11:29.177Z,13.71
2018-04-24T05:12:09.536Z,13.71
2018-04-24T05:12:50.138Z,13.71
2018-04-24T05:13:31.323Z,13.62
2018-04-24T05:14:11.505Z,13.81
2018-04-24T05:14:52.042Z,13.81
2018-04-24T05:15:32.970Z,13.83
2018-04-24T05:16:13.560Z,13.83
2018-04-24T05:16:54.026Z,13.87
2018-04-24T05:17:34.849Z,13.81
2018-04-24T05:18:15.302Z,13.84
2018-04-24T05:18:55.702Z,13.88
2018-04-24T05:19:36.711Z,13.9
2018-04-24T05:20:16.975Z,13.84
2018-04-24T05:20:57.822Z,13.79
2018-04-24T05:21:38.243Z,13.84
2018-04-24T05:22:18.595Z,13.83
2018-04-24T05:22:58.959Z,13.93
2018-04-24T05:23:39.404Z,13.91
2018-04-24T05:24:19.885Z,13.94
2018-04-24T05:25:00.420Z,14.09
2018-04-24T05:25:41.251Z,14.16
2018-04-24T05:26:21.639Z,14.11
2018-04-24T05:27:02.241Z,14.11
2018-04-24T05:27:43.131Z,14.17
2018-04-24T05:28:23.432Z,14.2
2018-04-24T05:29:04.021Z,14.3
2018-04-24T05:29:44.469Z,14.38
2018-04-24T05:30:24.982Z,14.26
2018-04-24T05:31:06.184Z,14.24
2018-04-24T05:31:46.137Z,14.3
2018-04-24T05:32:26.465Z,14.36
2018-04-24T05:33:06.951Z,14.31
2018-04-24T05:33:47.720Z,14.35
2018-04-24T05:34:28.126Z,14.36
2018-04-24T05:35:08.544Z,14.36
2018-04-24T05:35:49.081Z,14.29
2018-04-24T05:36:29.789Z,14.38
2018-04-24T05:37:11.075Z,14.29
2018-04-24T05:37:50.764Z,14.31
2018-04-24T05:38:31.259Z,14.34
2018-04-24T05:39:11.873Z,14.31
2018-04-24T05:39:52.180Z,14.42
2018-04-24T05:40:32.745Z,14.39
2018-04-24T05:41:13.049Z,14.48
2018-04-24T05:41:53.460Z,14.56
2018-04-24T05:42:33.841Z,14.64
2018-04-24T05:43:14.219Z,14.64
2018-04-24T05:43:54.669Z,14.64
2018-04-24T05:44:35.639Z,14.78
2018-04-24T05:45:16.048Z,14.78
2018-04-24T05:45:56.347Z,14.82
2018-04-24T05:46:37.027Z,14.87
2018-04-24T05:47:17.829Z,14.93
2018-04-24T05:47:58.892Z,14.98
2018-04-24T05:48:39.809Z,15
2018-04-24T05:49:20.111Z,15.04
2018-04-24T05:50:00.495Z,15.11
2018-04-24T05:50:40.946Z,15.01
2018-04-24T05:51:21.626Z,15.05
2018-04-24T05:52:02.501Z,15.15
2018-04-24T05:52:42.684Z,15.23
2018-04-24T05:53:23.310Z,15.2
2018-04-24T05:54:03.900Z,15.31
2018-04-24T05:54:44.362Z,15.37
2018-04-24T05:55:24.881Z,15.43
2018-04-24T05:56:05.289Z,15.53
2018-04-24T05:56:45.720Z,15.56
2018-04-24T05:57:27.177Z,15.68
2018-04-24T05:58:07.505Z,15.81
2018-04-24T05:58:48.441Z,15.91
2018-04-24T05:59:29.203Z,15.91
2018-04-24T06:00:10.008Z,15.96
2018-04-24T06:00:50.673Z,16.06
2018-04-24T06:01:31.032Z,16.33
2018-04-24T06:02:12.174Z,16.34
2018-04-24T06:02:53.738Z,16.41
2018-04-24T06:03:34.144Z,16.47
2018-04-24T06:04:14.648Z,16.57
2018-04-24T06:04:55.043Z,16.62
2018-04-24T06:05:35.446Z,16.73
2018-04-24T06:06:15.905Z,16.9
2018-04-24T06:06:56.331Z,17.09
2018-04-24T06:07:36.746Z,17.21
2018-04-24T06:08:17.275Z,17.3
2018-04-24T06:08:57.856Z,17.47
2018-04-24T06:09:38.322Z,17.62
2018-04-24T06:10:18.927Z,17.68
2018-04-24T06:10:59.351Z,17.74
2018-04-24T06:11:39.911Z,17.79
2018-04-24T06:12:20.580Z,17.81
2018-04-24T06:13:01.213Z,17.76
2018-04-24T06:13:41.723Z,17.71
2018-04-24T06:14:22.412Z,17.55
2018-04-24T06:15:03.469Z,17.57
2018-04-24T06:15:44.820Z,17.55
2018-04-24T06:16:25.604Z,17.46
2018-04-24T06:17:06.340Z,17.33
2018-04-24T06:17:47.407Z,17.32
2018-04-24T06:18:28.418Z,17.27
2018-04-24T06:19:08.794Z,17.27
2018-04-24T06:19:49.228Z,17.14
2018-04-24T06:20:29.801Z,17.07
2018-04-24T06:21:10.281Z,17.15
2018-04-24T06:21:50.894Z,17.15
2018-04-24T06:22:31.654Z,17.18
2018-04-24T06:23:11.923Z,17.22
2018-04-24T06:23:52.341Z,17.14
2018-04-24T06:24:32.965Z,17.18
2018-04-24T06:25:13.639Z,17.18
2018-04-24T06:25:54.192Z,17.12
2018-04-24T06:26:34.718Z,17.3
2018-04-24T06:27:15.126Z,17.39
2018-04-24T06:27:56.164Z,17.33
2018-04-24T06:28:36.688Z,17.47
2018-04-24T06:29:17.130Z,17.43
2018-04-24T06:29:57.553Z,17.46
2018-04-24T06:30:38.020Z,17.45
2018-04-24T06:31:19.230Z,17.39
2018-04-24T06:31:59.151Z,17.42
2018-04-24T06:32:39.678Z,17.32
2018-04-24T06:33:20.672Z,17.33
2018-04-24T06:34:01.871Z,17.4
2018-04-24T06:34:42.256Z,17.51
2018-04-24T06:35:23.026Z,17.66
2018-04-24T06:36:05.385Z,17.63
2018-04-24T06:36:45.772Z,17.71
2018-04-24T06:37:26.457Z,17.74
2018-04-24T06:38:06.928Z,17.87
2018-04-24T06:38:47.485Z,17.87
2018-04-24T06:39:28.201Z,17.98
2018-04-24T06:40:09.177Z,18.02
2018-04-24T06:40:50.336Z,18.13
2018-04-24T06:41:31.033Z,18.14
2018-04-24T06:42:11.484Z,18.31
2018-04-24T06:42:51.894Z,18.35
2018-04-24T06:43:32.699Z,18.41
2018-04-24T06:44:13.423Z,18.49
2018-04-24T06:44:53.750Z,18.49
2018-04-24T06:45:34.488Z,18.51
2018-04-24T06:46:15.720Z,18.5
2018-04-24T06:46:57.842Z,18.51
2018-04-24T06:47:38.383Z,18.49
2018-04-24T06:48:19.141Z,18.56
2018-04-24T06:49:02.423Z,18.56
2018-04-24T06:49:43.106Z,18.59
2018-04-24T06:50:23.671Z,18.47
2018-04-24T06:51:04.074Z,18.44
2018-04-24T06:51:44.758Z,18.35
2018-04-24T06:52:25.672Z,18.31
2018-04-24T06:53:06.936Z,18.34
2018-04-24T06:53:47.657Z,18.31
2018-04-24T06:54:28.146Z,18.2
2018-04-24T06:55:08.999Z,18.28
2018-04-24T06:55:50.473Z,18.31
2018-04-24T06:56:31.009Z,18.13
2018-04-24T06:57:11.847Z,18.11
2018-04-24T06:57:52.608Z,17.98
2018-04-24T06:58:33.004Z,17.98
2018-04-24T06:59:13.615Z,17.96
2018-04-24T06:59:54.062Z,17.84
2018-04-24T07:00:34.848Z,17.89
2018-04-24T07:01:15.169Z,17.73
2018-04-24T07:01:55.640Z,17.79
2018-04-24T07:02:36.066Z,17.65
2018-04-24T07:03:17.267Z,17.7
2018-04-24T07:03:58.492Z,17.62
2018-04-24T07:04:38.876Z,17.76
2018-04-24T07:05:19.826Z,17.73
2018-04-24T07:06:00.861Z,17.66
2018-04-24T07:06:42.059Z,17.73
2018-04-24T07:07:22.784Z,17.73
2018-04-24T07:08:04.599Z,17.62
2018-04-24T07:08:45.584Z,17.57
2018-04-24T07:09:26.078Z,17.6
2018-04-24T07:10:06.687Z,17.6
2018-04-24T07:10:47.152Z,17.53
2018-04-24T07:11:27.791Z,17.63
2018-04-24T07:12:09.379Z,17.68
2018-04-24T07:12:49.813Z,17.7
2018-04-24T07:13:32.467Z,17.84
2018-04-24T07:14:12.946Z,17.84
2018-04-24T07:14:54.376Z,17.84
2018-04-24T07:15:35.249Z,17.94
2018-04-24T07:16:16.122Z,18.1
2018-04-24T07:16:57.061Z,18.13
2018-04-24T07:17:37.582Z,18.29
2018-04-24T07:18:18.384Z,18.31
2018-04-24T07:18:59.913Z,18.29
2018-04-24T07:19:40.696Z,18.2
2018-04-24T07:20:21.214Z,18.26
2018-04-24T07:21:04.167Z,18.35
2018-04-24T07:21:44.053Z,18.35
2018-04-24T07:22:27.238Z,18.36
2018-04-24T07:23:07.417Z,18.56
2018-04-24T07:23:47.861Z,18.6
2018-04-24T07:24:28.479Z,18.75
2018-04-24T07:25:09.340Z,18.93
2018-04-24T07:25:52.285Z,18.9
2018-04-24T07:26:32.980Z,19.06
2018-04-24T07:27:13.854Z,19.15
2018-04-24T07:27:54.005Z,19.31
2018-04-24T07:28:34.900Z,19.45
2018-04-24T07:29:15.317Z,19.61
2018-04-24T07:29:55.787Z,19.62
2018-04-24T07:30:36.609Z,19.75
2018-04-24T07:31:17.092Z,19.78
2018-04-24T07:31:57.991Z,19.89
2018-04-24T07:32:38.536Z,20.05
2018-04-24T07:33:19.128Z,20.04
2018-04-24T07:33:59.657Z,20.1
2018-04-24T07:34:40.950Z,20.17
2018-04-24T07:35:21.779Z,20.1
2018-04-24T07:36:02.580Z,20.19
2018-04-24T07:36:43.340Z,20.16
2018-04-24T07:38:21.068Z,20.1
2018-04-24T07:39:01.746Z,19.87
2018-04-24T07:39:42.920Z,19.85
2018-04-24T07:40:23.546Z,19.85
2018-04-24T07:41:09.271Z,20.04
2018-04-24T07:41:48.676Z,19.98
2018-04-24T07:42:29.528Z,20.01
2018-04-24T07:43:09.864Z,19.95
2018-04-24T07:46:00.436Z,19.72
2018-04-24T07:46:41.756Z,19.62
2018-04-24T07:47:23.568Z,19.58
2018-04-24T07:48:03.765Z,19.6
2018-04-24T07:48:44.278Z,19.68
2018-04-24T07:49:24.667Z,19.6
2018-04-24T07:50:05.757Z,19.58
2018-04-24T07:50:47.249Z,19.64
2018-04-24T07:51:27.894Z,19.61
2018-04-24T07:52:08.341Z,19.57
2018-04-24T07:52:49.520Z,19.58
2018-04-24T07:53:29.303Z,19.28
2018-04-24T07:54:10.368Z,19.34
2018-04-24T07:54:53.565Z,19.24
2018-04-24T07:55:35.099Z,19.06
2018-04-24T08:01:17.055Z,18.68
2018-04-24T08:03:14.299Z,18.69
2018-04-24T08:03:55.270Z,18.75
2018-04-24T08:04:35.657Z,18.65
2018-04-24T08:05:16.457Z,18.6
2018-04-24T08:05:57.570Z,18.68
2018-04-24T08:06:38.234Z,18.59
2018-04-24T08:07:18.521Z,18.64
2018-04-24T08:08:00.264Z,18.62
2018-04-24T08:08:40.666Z,18.62
2018-04-24T08:09:21.038Z,18.71
2018-04-24T08:10:01.428Z,18.83
2018-04-24T08:10:42.148Z,18.84
2018-04-24T08:11:22.859Z,18.82
2018-04-24T08:12:05.303Z,18.5
2018-04-24T08:12:45.948Z,18.42
2018-04-24T08:13:26.867Z,18.41
2018-04-24T08:14:07.465Z,18.41
2018-04-24T08:14:48.671Z,18.42
2018-04-24T08:15:28.996Z,18.34
2018-04-24T08:16:12.147Z,18.38
2018-04-24T08:16:53.015Z,18.42
2018-04-24T08:17:33.517Z,18.29
2018-04-24T08:18:14.730Z,18.28
2018-04-24T08:18:55.940Z,18.35
2018-04-24T08:19:37.759Z,18.39
2018-04-24T08:21:05.915Z,18.5
2018-04-24T08:21:46.474Z,18.42
2018-04-24T08:22:27.245Z,18.41
2018-04-24T08:23:07.828Z,18.44
2018-04-24T08:23:48.598Z,18.42
2018-04-24T08:24:29.274Z,18.5
2018-04-24T08:25:11.277Z,18.51
2018-04-24T08:25:52.335Z,18.57
2018-04-24T08:26:32.991Z,18.54
2018-04-24T08:29:48.462Z,18.65
2018-04-24T08:32:10.168Z,18.47
2018-04-24T08:35:07.368Z,18.51
2018-04-24T08:35:47.532Z,18.49
2018-04-24T08:36:27.950Z,18.46
2018-04-24T08:37:09.184Z,18.53
2018-04-24T08:37:51.189Z,18.47
2018-04-24T08:38:31.846Z,18.5
2018-04-24T08:39:12.460Z,18.41
2018-04-24T08:39:52.981Z,18.32
2018-04-24T08:40:33.301Z,18.31
2018-04-24T08:41:13.712Z,18.14
2018-04-24T08:41:55.434Z,18.19
2018-04-24T08:42:36.798Z,18.2
2018-04-24T08:43:18.948Z,18.05
2018-04-24T08:43:59.589Z,18.05
2018-04-24T08:44:39.994Z,18.14
2018-04-24T08:45:20.592Z,18.2
2018-04-24T08:46:01.859Z,18.21
2018-04-24T08:46:42.351Z,18.13
2018-04-24T08:47:23.468Z,18.11
2018-04-24T08:48:03.241Z,18.21
2018-04-24T08:48:43.994Z,18.21
2018-04-24T08:49:24.791Z,18.25
2018-04-24T08:50:07.153Z,18.26
2018-04-24T08:52:32.366Z,18.09
2018-04-24T08:55:38.314Z,18.01
2018-04-24T08:56:16.184Z,18.05
2018-04-24T08:56:57.165Z,18.07
2018-04-24T08:57:37.602Z,18.1
2018-04-24T08:58:18.121Z,18.14
2018-04-24T08:58:58.572Z,18.11
2018-04-24T09:00:46.415Z,18.07
2018-04-24T09:01:26.794Z,18.11
2018-04-24T09:02:07.302Z,18.16
2018-04-24T09:02:47.566Z,18.02
2018-04-24T09:03:28.018Z,17.87
2018-04-24T09:04:23.610Z,17.96
2018-04-24T09:05:21.458Z,17.92
2018-04-24T09:07:41.720Z,18.01
2018-04-24T09:08:23.142Z,17.94
2018-04-24T09:09:03.705Z,17.96
2018-04-24T09:12:56.902Z,17.66
2018-04-24T09:13:50.675Z,17.77
2018-04-24T09:14:31.698Z,17.8
2018-04-24T09:15:12.575Z,17.91
2018-04-24T09:15:54.024Z,17.92
2018-04-24T09:16:37.711Z,17.87
2018-04-24T09:17:22.009Z,17.94
2018-04-24T09:18:05.575Z,17.86
2018-04-24T09:18:50.327Z,17.91
2018-04-24T09:19:30.672Z,17.79
2018-04-24T09:20:14.826Z,17.83
2018-04-24T09:20:55.902Z,17.81
2018-04-24T09:21:36.037Z,17.77
2018-04-24T09:22:17.925Z,17.87
2018-04-24T09:22:58.349Z,17.81
2018-04-24T09:23:39.383Z,17.79
2018-04-24T09:24:20.389Z,17.87
2018-04-24T09:25:05.620Z,17.86
2018-04-24T09:25:47.896Z,17.71
2018-04-24T09:26:29.352Z,17.77
2018-04-24T09:27:15.136Z,17.77
2018-04-24T09:27:58.545Z,17.7
2018-04-24T09:28:39.158Z,17.79
2018-04-24T09:29:19.739Z,17.74
2018-04-24T09:30:00.179Z,17.73
2018-04-24T09:30:40.709Z,17.74
2018-04-24T09:32:39.831Z,17.54
2018-04-24T09:33:24.853Z,17.66
2018-04-24T09:34:05.461Z,17.7
2018-04-24T09:34:47.162Z,17.76
2018-04-24T09:35:27.479Z,17.79
2018-04-24T09:36:08.656Z,17.76
2018-04-24T09:36:49.154Z,17.83
2018-04-24T09:37:33.005Z,17.86
2018-04-24T09:38:14.449Z,17.84
2018-04-24T09:38:55.392Z,17.92
2018-04-24T09:39:36.835Z,17.83
2018-04-24T09:40:17.635Z,17.83
2018-04-24T09:40:58.491Z,17.74
2018-04-24T09:41:39.177Z,17.79
2018-04-24T09:42:21.006Z,17.8
2018-04-24T09:43:02.204Z,17.81
2018-04-24T09:43:43.147Z,17.74
2018-04-24T09:44:24.233Z,17.7
2018-04-24T09:45:06.931Z,17.74
2018-04-24T09:45:47.704Z,17.8
2018-04-24T09:46:28.903Z,17.71
2018-04-24T09:47:10.048Z,17.8
2018-04-24T09:47:50.695Z,17.79
2018-04-24T09:48:30.998Z,17.83
2018-04-24T09:49:12.337Z,17.89
2018-04-24T09:49:54.365Z,17.79
2018-04-24T09:50:35.549Z,17.76
2018-04-24T09:51:16.146Z,17.73
2018-04-24T09:51:57.676Z,17.74
2018-04-24T09:52:38.676Z,17.79
2018-04-24T09:53:18.934Z,17.91
2018-04-24T09:53:59.444Z,17.81
2018-04-24T09:54:40.083Z,17.83
2018-04-24T09:55:21.418Z,17.65
2018-04-24T09:56:02.169Z,17.68
2018-04-24T09:56:42.575Z,17.68
2018-04-24T09:57:23.057Z,17.71
2018-04-24T09:58:03.713Z,17.63
2018-04-24T09:58:44.187Z,17.7
2018-04-24T09:59:24.960Z,17.53
2018-04-24T10:00:06.094Z,17.51
2018-04-24T10:00:46.724Z,17.46
2018-04-24T10:01:31.143Z,17.53
2018-04-24T10:03:36.745Z,17.65
2018-04-24T10:43:09.324Z,18.71
2018-04-24T10:43:53.960Z,18.57
2018-04-24T10:44:34.506Z,18.54
2018-04-24T10:45:14.956Z,18.5
2018-04-24T10:45:59.605Z,18.56
2018-04-24T10:46:41.261Z,18.49
2018-04-24T10:47:21.780Z,18.5
2018-04-24T10:48:03.003Z,18.57
2018-04-24T10:48:43.559Z,18.64
2018-04-24T10:49:25.586Z,18.69
2018-04-24T10:50:14.244Z,18.59
2018-04-24T10:51:00.218Z,18.65
2018-04-24T10:51:43.946Z,18.72